Time;durP1;ratioP1;P1;durP2;ratioP2;P2;SDS_P1;SDS_P2;PMS_P1;PMS_P2;Temp;Humidity;BMP_temperature;BMP_pressure;BME280_temperature;BME280_humidity;BME280_pressure;Samples;Min_cycle;Max_cycle;Signal;HPM_P1;HPM_P2
2023/10/11 00:03:16;;;;;;;14.27;6.45;;;11.10;99.90;;;;;;5029949;28;20029;-79
2023/10/11 00:05:44;;;;;;;9.80;6.00;;;11.10;99.90;;;;;;5034571;28;20049;-80
2023/10/11 00:08:45;;;;;;;15.75;7.20;;;11.10;99.90;;;;;;5036366;28;20433;-80
2023/10/11 00:11:07;;;;;;;15.07;7.10;;;11.00;99.90;;;;;;5028797;28;20053;-78
2023/10/11 00:13:35;;;;;;;12.57;6.22;;;11.10;99.90;;;;;;5028054;28;20532;-81
2023/10/11 00:16:09;;;;;;;13.00;6.68;;;11.00;99.90;;;;;;5035451;28;20124;-78
2023/10/11 00:18:40;;;;;;;16.27;6.95;;;11.00;99.90;;;;;;5031562;28;20069;-79
2023/10/11 00:23:58;;;;;;;13.45;5.97;;;11.00;99.90;;;;;;5010204;28;20049;-79
2023/10/11 00:26:24;;;;;;;14.73;7.03;;;11.00;99.90;;;;;;5024419;28;20022;-79
2023/10/11 00:28:54;;;;;;;15.10;7.07;;;10.90;99.90;;;;;;5018016;28;20501;-81
2023/10/11 00:31:20;;;;;;;15.40;6.90;;;11.00;99.90;;;;;;5032941;28;20030;-80
2023/10/11 00:33:49;;;;;;;11.95;5.78;;;10.90;99.90;;;;;;5037676;28;20147;-78
2023/10/11 00:36:16;;;;;;;12.45;6.75;;;10.90;99.90;;;;;;5034217;28;20037;-81
2023/10/11 00:38:50;;;;;;;11.07;5.95;;;10.90;99.90;;;;;;5032261;28;20037;-79
2023/10/11 00:43:47;;;;;;;11.80;6.32;;;10.80;99.90;;;;;;5031863;28;20037;-78
2023/10/11 00:46:14;;;;;;;10.75;5.70;;;10.80;99.90;;;;;;5015394;28;20030;-79
2023/10/11 00:51:48;;;;;;;15.48;6.63;;;10.90;99.90;;;;;;5033376;28;20056;-78
2023/10/11 00:54:15;;;;;;;15.60;6.88;;;10.80;99.90;;;;;;5032741;28;20025;-78
2023/10/11 00:56:43;;;;;;;16.52;6.22;;;10.80;99.90;;;;;;5033099;28;20133;-78
2023/10/11 00:59:11;;;;;;;15.50;7.28;;;10.80;99.90;;;;;;5029067;28;20112;-78
2023/10/11 01:01:42;;;;;;;13.70;5.90;;;10.80;99.90;;;;;;5028616;28;20136;-78
2023/10/11 01:04:12;;;;;;;12.70;6.57;;;10.70;99.90;;;;;;5028903;28;20656;-78
2023/10/11 01:06:38;;;;;;;11.80;6.32;;;10.70;99.90;;;;;;5028830;28;20772;-78
2023/10/11 01:09:26;;;;;;;11.00;5.65;;;10.70;99.90;;;;;;5023605;28;20041;-78
2023/10/11 01:11:52;;;;;;;17.55;6.97;;;10.80;99.90;;;;;;5027753;28;20635;-78
2023/10/11 01:14:19;;;;;;;14.20;6.78;;;10.80;99.90;;;;;;5040927;28;20025;-78
2023/10/11 01:16:44;;;;;;;15.70;6.15;;;10.70;99.90;;;;;;5035467;28;20048;-77
2023/10/11 01:19:11;;;;;;;17.08;6.53;;;10.70;99.90;;;;;;5026336;28;20026;-79
2023/10/11 01:21:44;;;;;;;15.45;6.50;;;10.70;99.90;;;;;;5021772;28;20025;-78
2023/10/11 01:24:10;;;;;;;12.10;6.55;;;10.60;99.90;;;;;;5029128;28;20049;-78
2023/10/11 01:26:37;;;;;;;11.82;7.00;;;10.50;99.90;;;;;;5025903;28;20080;-79
2023/10/11 01:29:05;;;;;;;12.98;6.55;;;10.50;99.90;;;;;;5029594;28;20180;-79
2023/10/11 01:31:33;;;;;;;15.15;6.57;;;10.50;99.90;;;;;;5035447;28;20030;-78
2023/10/11 01:33:59;;;;;;;13.15;5.97;;;10.50;99.90;;;;;;5030999;28;20534;-79
2023/10/11 01:36:26;;;;;;;14.80;6.75;;;10.50;99.90;;;;;;5028738;28;20042;-78
2023/10/11 01:38:52;;;;;;;17.17;6.55;;;10.60;99.90;;;;;;5030262;28;20037;-78
2023/10/11 01:41:28;;;;;;;13.85;6.38;;;10.60;99.90;;;;;;5035687;28;20083;-79
2023/10/11 01:43:57;;;;;;;13.50;6.90;;;10.60;99.90;;;;;;5025654;28;20056;-78
2023/10/11 01:46:26;;;;;;;14.07;6.25;;;10.60;99.90;;;;;;5048877;28;20053;-78
2023/10/11 01:48:56;;;;;;;14.23;5.95;;;10.60;99.90;;;;;;5038555;28;20059;-78
2023/10/11 01:51:26;;;;;;;14.73;6.07;;;10.70;99.90;;;;;;5041682;28;20037;-78
2023/10/11 01:53:57;;;;;;;14.48;6.60;;;10.70;99.90;;;;;;5035959;28;20038;-78
2023/10/11 01:56:23;;;;;;;16.08;6.57;;;10.70;99.90;;;;;;5043341;28;20038;-80
2023/10/11 01:58:56;;;;;;;16.08;7.00;;;10.70;99.90;;;;;;5032756;28;20091;-81
2023/10/11 02:01:26;;;;;;;13.55;6.18;;;10.70;99.90;;;;;;5022369;28;20028;-78
2023/10/11 02:03:55;;;;;;;14.93;6.43;;;10.70;99.90;;;;;;5026925;28;20033;-78
2023/10/11 02:06:25;;;;;;;20.83;6.47;;;10.70;99.90;;;;;;5039161;28;20075;-79
2023/10/11 02:08:51;;;;;;;17.17;6.63;;;10.80;99.90;;;;;;5037614;28;20036;-78
2023/10/11 02:11:23;;;;;;;13.25;6.57;;;10.80;99.90;;;;;;5026474;28;20044;-79
2023/10/11 02:13:50;;;;;;;13.38;6.13;;;10.70;99.90;;;;;;5030541;28;20104;-78
2023/10/11 02:16:16;;;;;;;15.45;6.65;;;10.70;99.90;;;;;;5035275;28;20038;-79
2023/10/11 02:18:42;;;;;;;13.02;6.95;;;10.80;99.90;;;;;;5025319;28;20082;-80
2023/10/11 02:21:08;;;;;;;11.38;6.40;;;10.80;99.90;;;;;;5025219;28;20406;-79
2023/10/11 02:23:39;;;;;;;12.40;5.95;;;10.90;99.90;;;;;;5030023;28;20036;-81
2023/10/11 02:26:09;;;;;;;17.83;6.78;;;10.80;99.90;;;;;;5024662;28;20472;-79
2023/10/11 02:28:38;;;;;;;11.63;6.07;;;10.90;99.90;;;;;;5029298;28;20657;-80
2023/10/11 02:31:05;;;;;;;14.95;7.10;;;10.80;99.90;;;;;;5040724;28;20046;-78
2023/10/11 02:33:33;;;;;;;12.75;5.95;;;10.80;99.90;;;;;;5028220;28;20119;-78
2023/10/11 02:36:08;;;;;;;13.02;6.20;;;10.80;99.90;;;;;;5016820;28;20086;-78
2023/10/11 02:38:47;;;;;;;11.93;6.43;;;10.80;99.90;;;;;;5021116;28;20034;-80
2023/10/11 02:41:20;;;;;;;20.98;7.07;;;10.80;99.90;;;;;;5030894;28;20053;-79
2023/10/11 02:43:49;;;;;;;15.93;6.82;;;10.80;99.90;;;;;;5023857;28;20028;-79
2023/10/11 02:46:16;;;;;;;15.23;7.63;;;10.90;99.90;;;;;;5039440;28;20030;-78
2023/10/11 02:48:46;;;;;;;14.32;6.88;;;10.90;99.90;;;;;;5019185;28;20041;-79
2023/10/11 02:51:16;;;;;;;12.85;6.82;;;10.90;99.90;;;;;;5035283;28;20044;-78
2023/10/11 02:53:45;;;;;;;11.93;6.80;;;10.90;99.90;;;;;;5035888;28;20036;-78
2023/10/11 02:56:11;;;;;;;14.52;6.55;;;11.00;99.90;;;;;;5028709;28;20521;-79
2023/10/11 02:58:40;;;;;;;11.30;6.10;;;11.00;99.90;;;;;;5033945;28;20035;-79
2023/10/11 03:01:20;;;;;;;11.20;6.55;;;11.00;99.90;;;;;;5040979;28;20032;-78
2023/10/11 03:03:52;;;;;;;13.35;6.75;;;11.00;99.90;;;;;;5024472;28;20037;-79
2023/10/11 03:06:22;;;;;;;13.60;6.88;;;11.00;99.90;;;;;;5038585;28;20022;-78
2023/10/11 03:08:51;;;;;;;14.63;7.55;;;11.00;99.90;;;;;;5037047;28;20100;-78
2023/10/11 03:11:17;;;;;;;17.88;7.75;;;11.00;99.90;;;;;;5039869;28;20033;-79
2023/10/11 03:13:43;;;;;;;15.85;7.35;;;11.10;99.90;;;;;;5033810;28;20034;-78
2023/10/11 03:16:17;;;;;;;15.38;7.15;;;11.10;99.90;;;;;;5043439;28;20044;-78
2023/10/11 03:18:46;;;;;;;17.00;7.28;;;11.10;99.90;;;;;;5031063;28;20455;-78
2023/10/11 03:21:20;;;;;;;15.32;6.53;;;11.10;99.90;;;;;;5044606;28;20030;-78
2023/10/11 03:23:48;;;;;;;11.25;5.75;;;11.10;99.90;;;;;;5037298;28;20033;-79
2023/10/11 03:26:31;;;;;;;12.52;6.30;;;11.10;99.90;;;;;;5042690;28;20040;-79
2023/10/11 03:29:05;;;;;;;12.85;6.85;;;11.20;99.90;;;;;;5033927;28;20041;-79
2023/10/11 03:31:39;;;;;;;18.67;6.75;;;11.20;99.90;;;;;;5029265;28;20029;-79
2023/10/11 03:34:17;;;;;;;19.33;6.80;;;11.20;99.90;;;;;;5034847;28;20056;-79
2023/10/11 03:36:49;;;;;;;12.85;6.65;;;11.20;99.90;;;;;;5027431;28;20661;-80
2023/10/11 03:39:28;;;;;;;18.25;7.60;;;11.20;99.90;;;;;;5027623;28;20029;-76
2023/10/11 03:42:07;;;;;;;16.08;7.47;;;11.20;99.90;;;;;;5033819;28;20081;-78
2023/10/11 03:44:39;;;;;;;12.38;5.72;;;11.20;99.90;;;;;;5038700;28;20038;-78
2023/10/11 03:47:09;;;;;;;16.38;6.95;;;11.20;99.90;;;;;;5039342;28;20105;-80
2023/10/11 03:52:16;;;;;;;13.07;6.22;;;11.20;99.90;;;;;;5038872;28;20044;-79
2023/10/11 03:54:42;;;;;;;16.58;7.80;;;11.30;99.90;;;;;;5033851;28;20032;-79
2023/10/11 03:57:08;;;;;;;18.10;7.10;;;11.30;99.90;;;;;;5022914;28;20392;-80
2023/10/11 03:59:38;;;;;;;11.55;6.35;;;11.30;99.90;;;;;;5028640;28;20112;-79
2023/10/11 04:02:10;;;;;;;12.05;5.85;;;11.30;99.90;;;;;;5033822;28;20041;-79
2023/10/11 04:04:40;;;;;;;14.73;7.65;;;11.30;99.90;;;;;;5032963;28;20087;-79
2023/10/11 04:07:06;;;;;;;15.80;6.97;;;11.30;99.90;;;;;;5032290;28;20101;-78
2023/10/11 04:09:37;;;;;;;15.48;6.65;;;11.30;99.90;;;;;;5038033;28;20033;-79
2023/10/11 04:12:10;;;;;;;17.63;8.10;;;11.20;99.90;;;;;;5033634;28;20117;-80
2023/10/11 04:14:42;;;;;;;16.27;6.03;;;11.20;99.90;;;;;;5030467;28;20052;-79
2023/10/11 04:17:18;;;;;;;12.02;7.00;;;11.20;99.90;;;;;;5034543;28;20037;-79
2023/10/11 04:19:44;;;;;;;14.82;6.80;;;11.20;99.90;;;;;;5033749;28;20021;-80
2023/10/11 04:22:16;;;;;;;13.90;6.75;;;11.10;99.90;;;;;;5031741;28;20026;-80
2023/10/11 04:24:45;;;;;;;14.20;6.88;;;11.20;99.90;;;;;;5033128;28;20033;-80
2023/10/11 04:27:45;;;;;;;13.10;6.70;;;11.20;99.90;;;;;;5037202;28;20029;-79
2023/10/11 04:30:17;;;;;;;13.18;6.57;;;11.10;99.90;;;;;;5032989;28;20091;-80
2023/10/11 04:32:46;;;;;;;12.35;6.47;;;11.10;99.90;;;;;;5036536;28;20053;-78
2023/10/11 04:35:25;;;;;;;13.50;6.47;;;11.10;99.90;;;;;;5035679;28;20040;-79
2023/10/11 04:37:55;;;;;;;12.98;6.07;;;11.10;99.90;;;;;;5036188;28;20163;-79
2023/10/11 04:40:24;;;;;;;14.50;6.68;;;11.10;99.90;;;;;;5035873;28;20544;-78
2023/10/11 04:43:04;;;;;;;14.40;6.20;;;11.20;99.90;;;;;;5030260;28;20067;-78
2023/10/11 04:45:46;;;;;;;12.07;7.20;;;11.10;99.90;;;;;;5034628;28;20052;-80
2023/10/11 04:48:19;;;;;;;14.90;6.15;;;11.10;99.90;;;;;;5033771;28;20642;-79
2023/10/11 04:50:45;;;;;;;15.07;6.47;;;11.10;99.90;;;;;;5030187;28;20028;-78
2023/10/11 04:53:18;;;;;;;21.08;7.07;;;11.10;99.90;;;;;;5030525;28;20029;-78
2023/10/11 04:55:58;;;;;;;12.88;7.20;;;11.10;99.90;;;;;;5030482;28;20026;-78
2023/10/11 04:59:12;;;;;;;13.98;7.20;;;11.10;99.90;;;;;;5031944;28;20029;-80
2023/10/11 05:01:24;;;;;;;18.02;7.32;;;11.00;99.90;;;;;;5026078;28;20461;-80
2023/10/11 05:03:59;;;;;;;14.02;6.97;;;11.00;99.90;;;;;;5031611;28;20093;-79
2023/10/11 05:06:39;;;;;;;13.00;6.38;;;11.00;99.90;;;;;;5035227;28;20036;-79
2023/10/11 05:10:29;;;;;;;12.68;6.82;;;11.00;99.90;;;;;;5031959;28;20037;-79
2023/10/11 05:14:29;;;;;;;14.88;6.60;;;11.00;99.90;;;;;;5040474;28;20037;-78
2023/10/11 05:17:16;;;;;;;15.82;6.70;;;11.00;99.90;;;;;;5028955;28;20465;-79
2023/10/11 05:22:48;;;;;;;11.88;6.45;;;10.90;99.90;;;;;;5042247;28;20039;-79
2023/10/11 05:27:49;;;;;;;12.63;6.97;;;10.90;99.90;;;;;;5037739;28;20037;-79
2023/10/11 05:32:54;;;;;;;16.67;7.07;;;10.80;99.90;;;;;;5033974;28;20037;-80
2023/10/11 05:51:39;;;;;;;15.55;8.27;;;10.70;99.90;;;;;;5032875;28;21764;-78
2023/10/11 05:54:09;;;;;;;14.60;6.82;;;10.70;99.90;;;;;;5027202;28;20073;-78
2023/10/11 05:56:38;;;;;;;17.42;7.03;;;10.70;99.90;;;;;;5030625;28;20040;-79
2023/10/11 05:59:06;;;;;;;19.73;6.97;;;10.80;99.90;;;;;;5023603;28;20030;-78
2023/10/11 06:01:34;;;;;;;18.33;7.78;;;10.80;99.90;;;;;;5025511;28;20057;-79
2023/10/11 06:04:03;;;;;;;15.45;7.55;;;10.80;99.90;;;;;;5028617;28;20505;-78
2023/10/11 06:06:38;;;;;;;13.93;6.35;;;10.90;99.90;;;;;;5032658;28;20025;-79
2023/10/11 06:09:05;;;;;;;16.27;6.78;;;10.90;99.90;;;;;;5025215;28;20052;-77
2023/10/11 06:11:38;;;;;;;13.45;6.82;;;11.00;99.90;;;;;;5028286;28;20033;-80
2023/10/11 06:14:06;;;;;;;18.83;7.13;;;11.00;99.90;;;;;;5031263;28;20045;-79
2023/10/11 06:16:43;;;;;;;13.88;6.63;;;11.10;99.90;;;;;;5023076;28;20044;-80
2023/10/11 06:19:18;;;;;;;15.05;6.88;;;11.10;99.90;;;;;;5032514;28;20588;-78
2023/10/11 06:21:57;;;;;;;11.20;6.53;;;11.20;99.90;;;;;;5046614;28;20525;-80
2023/10/11 06:24:30;;;;;;;13.32;6.32;;;11.20;99.90;;;;;;5027800;28;20034;-79
2023/10/11 06:27:04;;;;;;;13.38;6.75;;;11.20;99.90;;;;;;5029598;28;20030;-79
2023/10/11 06:29:45;;;;;;;16.35;6.82;;;11.30;99.90;;;;;;5023623;28;20042;-81
2023/10/11 06:32:12;;;;;;;16.13;6.28;;;11.40;99.90;;;;;;5034426;28;20033;-79
2023/10/11 06:34:45;;;;;;;15.10;6.60;;;11.50;99.90;;;;;;5025375;28;20028;-78
2023/10/11 06:37:14;;;;;;;16.67;7.13;;;11.50;99.90;;;;;;5029521;28;20079;-78
2023/10/11 06:42:14;;;;;;;14.95;6.25;;;11.70;99.90;;;;;;5027933;28;20091;-77
2023/10/11 06:44:41;;;;;;;18.70;6.18;;;11.90;99.90;;;;;;5023505;28;20053;-81
2023/10/11 06:47:10;;;;;;;13.48;6.55;;;12.10;99.90;;;;;;5025085;28;20545;-79
2023/10/11 06:49:47;;;;;;;11.95;5.60;;;12.40;99.90;;;;;;5030995;28;20025;-78
2023/10/11 06:52:22;;;;;;;14.23;5.95;;;12.60;99.90;;;;;;5029742;28;20055;-77
2023/10/11 06:54:48;;;;;;;10.93;5.80;;;12.90;99.90;;;;;;5033117;28;20029;-79
2023/10/11 06:57:21;;;;;;;14.23;6.47;;;13.00;99.90;;;;;;5029882;28;20046;-79
2023/10/11 06:59:51;;;;;;;14.18;5.80;;;13.20;99.90;;;;;;5039336;28;20041;-78
2023/10/11 07:02:31;;;;;;;18.33;5.72;;;13.30;99.90;;;;;;5031783;28;20026;-78
2023/10/11 07:05:08;;;;;;;14.40;5.93;;;13.50;99.90;;;;;;5037243;28;20045;-78
2023/10/11 07:07:34;;;;;;;13.65;6.70;;;13.80;99.90;;;;;;5036076;28;20029;-78
2023/10/11 07:10:27;;;;;;;15.98;5.85;;;14.10;99.90;;;;;;5029258;28;20261;-79
2023/10/11 07:13:03;;;;;;;14.15;6.15;;;14.30;99.90;;;;;;5032165;28;20041;-78
2023/10/11 07:15:51;;;;;;;14.73;5.30;;;14.60;99.90;;;;;;5028288;28;20052;-78
2023/10/11 07:18:28;;;;;;;14.38;5.50;;;14.70;99.90;;;;;;5029440;28;20049;-80
2023/10/11 07:21:11;;;;;;;11.68;5.22;;;14.70;99.90;;;;;;5025741;28;20026;-79
2023/10/11 07:28:56;;;;;;;13.85;5.75;;;14.60;99.90;;;;;;5032759;28;20139;-78
2023/10/11 07:31:32;;;;;;;12.07;5.85;;;14.70;99.90;;;;;;5041314;28;20052;-79
2023/10/11 07:33:59;;;;;;;15.82;5.55;;;14.60;99.90;;;;;;5028440;28;20509;-77
2023/10/11 07:36:25;;;;;;;11.68;5.65;;;14.60;99.90;;;;;;5031109;28;20030;-80
2023/10/11 07:38:54;;;;;;;12.65;6.18;;;14.60;99.90;;;;;;5028856;28;20068;-79
2023/10/11 07:41:29;;;;;;;15.65;6.05;;;14.70;99.90;;;;;;5032484;28;20144;-80
2023/10/11 07:43:56;;;;;;;17.33;6.70;;;14.90;99.90;;;;;;5033093;28;20033;-79
2023/10/11 07:46:27;;;;;;;14.27;5.93;;;15.10;99.90;;;;;;5041610;28;20041;-78
2023/10/11 07:49:02;;;;;;;12.77;6.88;;;15.20;99.90;;;;;;5039321;28;20036;-80
2023/10/11 07:51:29;;;;;;;15.68;6.30;;;15.30;99.90;;;;;;5036487;28;20021;-79
2023/10/11 07:53:56;;;;;;;16.75;6.68;;;15.30;99.90;;;;;;5041360;28;20038;-78
2023/10/11 07:56:22;;;;;;;12.23;5.70;;;15.50;99.90;;;;;;5038599;28;20622;-79
2023/10/11 07:58:49;;;;;;;14.57;6.72;;;15.60;99.90;;;;;;5035185;28;20334;-78
2023/10/11 08:01:16;;;;;;;12.23;5.78;;;15.80;99.90;;;;;;5035873;28;20096;-78
2023/10/11 08:03:45;;;;;;;13.43;6.13;;;16.00;99.90;;;;;;5033405;28;20038;-78
2023/10/11 08:06:14;;;;;;;17.80;5.63;;;16.10;99.90;;;;;;5035430;28;20117;-79
2023/10/11 08:08:40;;;;;;;13.10;5.85;;;16.30;99.90;;;;;;5032899;28;20037;-80
2023/10/11 08:11:22;;;;;;;13.40;5.50;;;16.40;99.90;;;;;;5030999;28;20033;-79
2023/10/11 08:13:53;;;;;;;15.30;5.28;;;16.50;99.90;;;;;;5033714;28;20048;-79
2023/10/11 08:16:18;;;;;;;10.88;5.70;;;16.60;99.90;;;;;;5033782;28;20057;-78
2023/10/11 08:18:47;;;;;;;11.00;5.60;;;16.70;99.90;;;;;;5039780;28;20044;-79
2023/10/11 08:21:13;;;;;;;15.43;4.47;;;16.80;99.90;;;;;;5035460;28;20638;-80
2023/10/11 08:23:42;;;;;;;10.95;5.53;;;16.80;99.90;;;;;;5035327;28;20024;-80
2023/10/11 08:26:14;;;;;;;11.80;5.05;;;16.90;99.90;;;;;;5036064;28;20060;-78
2023/10/11 08:28:48;;;;;;;21.23;6.10;;;16.90;99.90;;;;;;5031095;28;20048;-79
2023/10/11 08:31:37;;;;;;;11.02;5.68;;;17.00;99.90;;;;;;5035771;28;20033;-80
2023/10/11 08:34:03;;;;;;;16.80;5.85;;;17.10;99.90;;;;;;5032607;28;20084;-78
2023/10/11 08:36:35;;;;;;;15.77;6.13;;;17.20;99.90;;;;;;5032703;28;20492;-79
2023/10/11 08:39:06;;;;;;;12.50;5.50;;;17.30;99.90;;;;;;5030307;28;20560;-79
2023/10/11 08:41:35;;;;;;;13.85;4.82;;;17.30;99.90;;;;;;5051281;28;20026;-79
2023/10/11 08:44:08;;;;;;;10.00;5.00;;;17.40;99.90;;;;;;5036133;28;20093;-78
2023/10/11 08:46:36;;;;;;;14.23;5.25;;;17.40;99.90;;;;;;5036835;28;20030;-79
2023/10/11 08:49:02;;;;;;;11.57;4.78;;;17.50;99.90;;;;;;5036473;28;20095;-80
2023/10/11 08:51:36;;;;;;;12.20;4.90;;;17.50;99.90;;;;;;5030368;28;20502;-78
2023/10/11 08:54:11;;;;;;;9.57;4.65;;;17.60;99.90;;;;;;5031923;28;20025;-79
2023/10/11 08:56:54;;;;;;;11.18;4.65;;;17.60;99.90;;;;;;5032858;28;20021;-79
2023/10/11 08:59:27;;;;;;;7.65;4.45;;;17.60;99.90;;;;;;5030660;28;20357;-77
2023/10/11 09:02:06;;;;;;;8.82;4.10;;;17.60;99.90;;;;;;5024175;28;20061;-78
2023/10/11 09:05:06;;;;;;;14.05;4.03;;;17.70;99.90;;;;;;5025349;28;20584;-76
2023/10/11 09:07:45;;;;;;;13.98;4.90;;;17.70;99.90;;;;;;5044990;28;20581;-77
2023/10/11 09:10:33;;;;;;;12.65;4.70;;;17.70;99.90;;;;;;5030518;28;20038;-78
2023/10/11 09:13:08;;;;;;;10.50;4.40;;;17.70;99.90;;;;;;5029122;28;20033;-77
2023/10/11 09:15:40;;;;;;;9.77;4.70;;;17.70;99.90;;;;;;5034848;28;20479;-79
2023/10/11 09:18:14;;;;;;;12.45;4.80;;;17.80;99.90;;;;;;5031429;28;20086;-77
2023/10/11 09:21:20;;;;;;;9.95;4.30;;;17.80;99.90;;;;;;5035562;28;20045;-76
2023/10/11 09:23:48;;;;;;;;;;;17.90;99.90;;;;;;5028335;28;20064;-77
2023/10/11 09:26:21;;;;;;;20.27;4.47;;;18.00;99.90;;;;;;5028389;28;19921;-77
2023/10/11 09:28:56;;;;;;;8.07;4.55;;;18.10;99.90;;;;;;5032513;28;20041;-77
2023/10/11 09:31:23;;;;;;;10.25;4.50;;;18.10;99.90;;;;;;5025770;28;20056;-77
2023/10/11 09:33:59;;;;;;;10.85;4.53;;;18.30;99.90;;;;;;5027857;28;20037;-77
2023/10/11 09:36:28;;;;;;;12.45;4.65;;;18.30;99.90;;;;;;5028301;28;20034;-77
2023/10/11 09:38:55;;;;;;;9.80;4.40;;;18.30;99.90;;;;;;5030813;28;20393;-76
2023/10/11 09:41:38;;;;;;;7.90;3.60;;;18.30;99.90;;;;;;5029027;28;20026;-77
2023/10/11 09:44:12;;;;;;;10.25;4.15;;;18.40;99.90;;;;;;5029272;28;20320;-78
2023/10/11 09:46:42;;;;;;;9.77;3.88;;;18.40;99.90;;;;;;5026749;28;20033;-77
2023/10/11 09:49:12;;;;;;;15.15;5.25;;;18.40;99.90;;;;;;5025946;28;20040;-78
2023/10/11 09:51:43;;;;;;;9.07;4.57;;;18.50;99.90;;;;;;5028538;28;20025;-78
2023/10/11 09:54:13;;;;;;;15.60;5.13;;;18.60;99.90;;;;;;5025172;28;20116;-77
2023/10/11 09:56:54;;;;;;;7.40;4.00;;;18.70;99.90;;;;;;5025946;28;20101;-77
2023/10/11 09:59:23;;;;;;;7.28;3.60;;;18.80;99.90;;;;;;5027090;28;20368;-77
2023/10/11 10:01:51;;;;;;;9.40;4.38;;;18.90;99.90;;;;;;5031571;28;20897;-77
2023/10/11 10:04:20;;;;;;;11.45;4.70;;;18.90;99.90;;;;;;5020238;28;20425;-77
2023/10/11 10:07:11;;;;;;;7.82;3.25;;;19.00;99.90;;;;;;5022403;28;20059;-77
2023/10/11 10:09:52;;;;;;;11.23;3.75;;;19.10;99.90;;;;;;5031722;28;20108;-78
2023/10/11 10:12:22;;;;;;;9.40;4.13;;;19.20;99.90;;;;;;5031260;28;20109;-77
2023/10/11 10:15:02;;;;;;;8.98;3.75;;;19.30;99.90;;;;;;5022807;28;20175;-78
2023/10/11 10:17:28;;;;;;;7.60;3.35;;;19.30;99.90;;;;;;5025134;28;20668;-78
2023/10/11 10:20:00;;;;;;;11.63;3.92;;;19.30;99.90;;;;;;5028354;28;20030;-78
2023/10/11 10:22:32;;;;;;;10.75;4.57;;;19.30;99.90;;;;;;5023848;28;20040;-77
2023/10/11 10:25:18;;;;;;;10.20;4.00;;;19.30;99.90;;;;;;5026643;28;20101;-76
2023/10/11 10:27:52;;;;;;;11.50;4.13;;;19.40;99.90;;;;;;5025638;28;20039;-76
2023/10/11 10:30:21;;;;;;;10.07;3.83;;;19.40;99.90;;;;;;5027533;28;20072;-77
2023/10/11 10:33:18;;;;;;;10.75;4.47;;;19.40;99.90;;;;;;5023210;28;20041;-77
2023/10/11 10:35:44;;;;;;;12.27;3.90;;;19.40;99.90;;;;;;5027435;28;20045;-77
2023/10/11 10:38:10;;;;;;;10.43;4.22;;;19.40;99.90;;;;;;5036242;28;20489;-77
2023/10/11 10:40:45;;;;;;;10.20;3.67;;;19.40;99.90;;;;;;5024129;28;20064;-77
2023/10/11 10:43:23;;;;;;;9.30;3.53;;;19.30;99.90;;;;;;5015886;28;20148;-77
2023/10/11 10:45:51;;;;;;;6.55;3.55;;;19.30;99.90;;;;;;5020778;28;20088;-77
2023/10/11 10:48:23;;;;;;;13.80;4.00;;;19.30;99.90;;;;;;5020848;28;20044;-77
2023/10/11 10:51:05;;;;;;;10.30;4.18;;;19.30;99.90;;;;;;5022050;28;20474;-76
2023/10/11 10:53:43;;;;;;;12.63;3.95;;;19.30;99.90;;;;;;5018715;28;20478;-77
2023/10/11 10:56:21;;;;;;;10.40;4.38;;;19.40;99.90;;;;;;5020446;28;20077;-77
2023/10/11 10:58:47;;;;;;;8.95;3.78;;;19.40;99.90;;;;;;5020430;28;20065;-77
2023/10/11 11:01:13;;;;;;;11.23;4.32;;;19.40;99.90;;;;;;5021439;28;20058;-77
2023/10/11 11:03:41;;;;;;;12.98;3.83;;;19.40;99.90;;;;;;5023163;28;20478;-77
2023/10/11 11:06:11;;;;;;;7.28;3.83;;;19.40;99.90;;;;;;5023075;28;20034;-78
2023/10/11 11:08:39;;;;;;;11.80;4.30;;;19.50;99.90;;;;;;5019761;28;20040;-77
2023/10/11 11:11:19;;;;;;;11.05;3.95;;;19.60;99.90;;;;;;5017999;28;20037;-77
2023/10/11 11:13:49;;;;;;;10.27;3.92;;;19.70;99.90;;;;;;5025579;28;20064;-77
2023/10/11 11:16:20;;;;;;;17.25;4.10;;;19.80;99.90;;;;;;5032831;28;20056;-77
2023/10/11 11:18:47;;;;;;;17.08;3.90;;;20.00;99.90;;;;;;5034050;28;20119;-77
2023/10/11 11:21:20;;;;;;;10.48;3.90;;;20.00;99.90;;;;;;5037529;28;20032;-77
2023/10/11 11:23:52;;;;;;;11.15;4.20;;;20.10;99.90;;;;;;5038419;28;20056;-77
2023/10/11 11:26:31;;;;;;;11.30;3.97;;;20.10;99.90;;;;;;5034309;28;20044;-79
2023/10/11 11:29:11;;;;;;;10.95;4.47;;;20.10;99.90;;;;;;5031383;28;20045;-77
2023/10/11 11:31:53;;;;;;;13.15;4.32;;;20.10;99.90;;;;;;5031242;28;20116;-78
2023/10/11 11:34:37;;;;;;;13.65;4.10;;;20.00;99.90;;;;;;5021424;28;20025;-78
2023/10/11 11:37:10;;;;;;;10.20;4.30;;;20.10;99.90;;;;;;5029231;28;20034;-76
2023/10/11 11:39:39;;;;;;;8.50;3.83;;;20.20;99.90;;;;;;5023157;28;20025;-77
2023/10/11 11:42:24;;;;;;;6.88;3.47;;;20.20;99.90;;;;;;5029987;28;20040;-77
2023/10/11 11:44:51;;;;;;;9.90;4.05;;;20.30;99.90;;;;;;5032581;28;20025;-77
2023/10/11 11:47:22;;;;;;;10.77;3.90;;;20.30;99.90;;;;;;5036551;28;20623;-78
2023/10/11 11:49:48;;;;;;;8.75;4.13;;;20.30;99.90;;;;;;5029850;28;20367;-77
2023/10/11 11:52:16;;;;;;;7.93;3.53;;;20.30;99.90;;;;;;5032395;28;20040;-77
2023/10/11 11:54:43;;;;;;;10.73;3.67;;;20.30;99.90;;;;;;5034518;28;20527;-77
2023/10/11 11:57:09;;;;;;;7.25;3.40;;;20.30;99.90;;;;;;5030979;28;20030;-78
2023/10/11 11:59:36;;;;;;;10.18;4.55;;;20.40;99.90;;;;;;5034232;28;20049;-77
2023/10/11 12:02:08;;;;;;;9.55;3.92;;;20.40;99.90;;;;;;5037338;28;20037;-77
2023/10/11 12:04:36;;;;;;;11.40;3.95;;;20.40;99.90;;;;;;5030713;28;20061;-77
2023/10/11 12:07:09;;;;;;;14.70;4.10;;;20.60;99.90;;;;;;5029406;28;20496;-77
2023/10/11 12:09:37;;;;;;;9.30;3.72;;;20.60;99.90;;;;;;5028194;28;20026;-78
2023/10/11 12:12:05;;;;;;;10.25;3.50;;;20.70;99.90;;;;;;5036989;28;20029;-77
2023/10/11 12:14:37;;;;;;;9.25;3.53;;;20.70;99.90;;;;;;5030934;28;20038;-77
2023/10/11 12:17:11;;;;;;;16.45;5.10;;;20.80;99.90;;;;;;5034601;28;20030;-78
2023/10/11 12:19:40;;;;;;;7.43;3.25;;;20.90;99.90;;;;;;5024405;28;20026;-77
2023/10/11 12:22:08;;;;;;;7.75;3.47;;;20.90;99.90;;;;;;5026259;28;20032;-78
2023/10/11 12:24:35;;;;;;;11.45;3.75;;;20.90;99.90;;;;;;5028438;28;20021;-77
2023/10/11 12:27:00;;;;;;;10.30;4.03;;;20.90;99.90;;;;;;5035598;28;20046;-76
2023/10/11 12:29:27;;;;;;;12.30;4.22;;;20.90;99.90;;;;;;5035996;28;20033;-77
2023/10/11 12:31:55;;;;;;;9.25;3.60;;;21.00;99.90;;;;;;5025931;28;20040;-78
2023/10/11 12:34:25;;;;;;;8.40;3.83;;;21.00;99.90;;;;;;5025183;28;20021;-78
2023/10/11 12:36:53;;;;;;;11.38;4.05;;;21.00;99.90;;;;;;5028904;28;20041;-78
2023/10/11 12:39:24;;;;;;;11.88;4.25;;;20.90;99.90;;;;;;5031795;28;20107;-78
2023/10/11 12:41:51;;;;;;;9.65;3.72;;;20.90;99.90;;;;;;5029881;28;20045;-78
2023/10/11 12:44:21;;;;;;;7.30;3.80;;;20.90;99.90;;;;;;5032219;28;20798;-77
2023/10/11 12:46:51;;;;;;;8.70;3.88;;;20.90;99.90;;;;;;5030762;28;20541;-77
2023/10/11 12:49:18;;;;;;;14.80;4.60;;;20.80;99.90;;;;;;5031279;28;20034;-77
2023/10/11 12:51:46;;;;;;;11.27;3.88;;;20.80;99.90;;;;;;5030906;28;20288;-77
2023/10/11 12:54:16;;;;;;;8.52;3.50;;;20.70;99.90;;;;;;5031527;28;20045;-77
2023/10/11 12:56:45;;;;;;;8.93;3.63;;;20.60;99.90;;;;;;5032138;28;20021;-77
2023/10/11 12:59:14;;;;;;;11.23;3.88;;;20.60;99.90;;;;;;5028330;28;20813;-77
2023/10/11 13:01:55;;;;;;;10.90;3.63;;;20.60;99.90;;;;;;5028823;28;20087;-78
2023/10/11 13:04:30;;;;;;;6.78;3.28;;;20.50;99.90;;;;;;5030171;28;20522;-77
2023/10/11 13:06:59;;;;;;;15.05;4.18;;;20.50;99.90;;;;;;5029148;28;20141;-77
2023/10/11 13:09:30;;;;;;;7.40;3.92;;;20.60;99.90;;;;;;5018447;28;20610;-77
2023/10/11 13:11:56;;;;;;;10.55;4.15;;;20.60;99.90;;;;;;5029286;28;20030;-77
2023/10/11 13:14:22;;;;;;;13.20;4.70;;;20.50;99.90;;;;;;5035891;28;20712;-77
2023/10/11 13:16:54;;;;;;;12.25;3.90;;;20.60;99.90;;;;;;5040971;28;20402;-77
2023/10/11 13:19:24;;;;;;;7.63;3.50;;;20.60;99.90;;;;;;5028546;28;20552;-78
2023/10/11 13:21:54;;;;;;;13.30;4.05;;;20.60;99.90;;;;;;5030698;28;20041;-78
2023/10/11 13:24:25;;;;;;;11.88;3.80;;;20.60;99.90;;;;;;5036957;28;20477;-78
2023/10/11 13:26:56;;;;;;;14.23;4.00;;;20.50;99.90;;;;;;5032721;28;20113;-77
2023/10/11 13:29:23;;;;;;;6.70;3.83;;;20.50;99.90;;;;;;5027073;28;20053;-77
2023/10/11 13:32:08;;;;;;;13.07;4.10;;;20.50;99.90;;;;;;5024276;28;20057;-77
2023/10/11 13:34:34;;;;;;;11.48;3.97;;;20.40;99.90;;;;;;5033832;28;20055;-77
2023/10/11 13:37:00;;;;;;;11.63;3.60;;;20.40;99.90;;;;;;5023036;28;20497;-77
2023/10/11 13:39:27;;;;;;;10.07;4.00;;;20.30;99.90;;;;;;5030777;28;20088;-78
2023/10/11 13:42:04;;;;;;;8.85;4.18;;;20.20;99.90;;;;;;5032363;28;20120;-77
2023/10/11 13:44:35;;;;;;;16.33;5.07;;;20.20;99.90;;;;;;5042554;28;20108;-78
2023/10/11 13:47:01;;;;;;;9.05;4.35;;;20.20;99.90;;;;;;5031337;28;20045;-78
2023/10/11 13:49:27;;;;;;;12.85;3.65;;;20.20;99.90;;;;;;5027472;28;20025;-78